sensor_id;sensor_type;location;lat;lon;timestamp;temperature;humidity
16663;DHT22;8445;51.270;9.434;2023-07-31T00:01:49;16.20;96.60
16663;DHT22;8445;51.270;9.434;2023-07-31T00:04:15;16.20;96.80
16663;DHT22;8445;51.270;9.434;2023-07-31T00:06:41;16.20;96.80
16663;DHT22;8445;51.270;9.434;2023-07-31T00:09:07;16.20;97.10
16663;DHT22;8445;51.270;9.434;2023-07-31T00:11:33;16.10;97.00
16663;DHT22;8445;51.270;9.434;2023-07-31T00:13:59;16.10;97.10
16663;DHT22;8445;51.270;9.434;2023-07-31T00:16:24;16.00;97.30
16663;DHT22;8445;51.270;9.434;2023-07-31T00:18:53;16.10;97.70
16663;DHT22;8445;51.270;9.434;2023-07-31T00:21:18;16.10;97.50
16663;DHT22;8445;51.270;9.434;2023-07-31T00:23:44;16.10;97.70
16663;DHT22;8445;51.270;9.434;2023-07-31T00:26:10;16.10;97.90
16663;DHT22;8445;51.270;9.434;2023-07-31T00:28:36;16.10;97.90
16663;DHT22;8445;51.270;9.434;2023-07-31T00:31:02;16.10;97.90
16663;DHT22;8445;51.270;9.434;2023-07-31T00:33:31;16.10;97.90
16663;DHT22;8445;51.270;9.434;2023-07-31T00:35:57;16.20;97.90
16663;DHT22;8445;51.270;9.434;2023-07-31T00:38:25;16.20;97.90
16663;DHT22;8445;51.270;9.434;2023-07-31T00:40:51;16.20;97.90
16663;DHT22;8445;51.270;9.434;2023-07-31T00:43:17;16.20;97.80
16663;DHT22;8445;51.270;9.434;2023-07-31T00:45:43;16.20;97.80
16663;DHT22;8445;51.270;9.434;2023-07-31T00:48:11;16.20;97.80
16663;DHT22;8445;51.270;9.434;2023-07-31T00:50:37;16.30;98.10
16663;DHT22;8445;51.270;9.434;2023-07-31T00:53:08;16.30;98.00
16663;DHT22;8445;51.270;9.434;2023-07-31T00:55:34;16.30;98.40
16663;DHT22;8445;51.270;9.434;2023-07-31T00:58:00;16.30;98.00
16663;DHT22;8445;51.270;9.434;2023-07-31T01:00:26;16.30;98.00
16663;DHT22;8445;51.270;9.434;2023-07-31T01:02:53;16.30;98.20
16663;DHT22;8445;51.270;9.434;2023-07-31T01:05:29;16.30;98.10
16663;DHT22;8445;51.270;9.434;2023-07-31T01:10:57;16.30;98.10
16663;DHT22;8445;51.270;9.434;2023-07-31T01:13:28;16.30;98.60
16663;DHT22;8445;51.270;9.434;2023-07-31T01:15:55;16.40;98.20
16663;DHT22;8445;51.270;9.434;2023-07-31T01:18:21;16.40;98.00
16663;DHT22;8445;51.270;9.434;2023-07-31T01:20:54;16.40;97.90
16663;DHT22;8445;51.270;9.434;2023-07-31T01:27:05;16.40;98.00
16663;DHT22;8445;51.270;9.434;2023-07-31T01:29:43;16.40;98.00
16663;DHT22;8445;51.270;9.434;2023-07-31T01:32:19;16.40;98.20
16663;DHT22;8445;51.270;9.434;2023-07-31T01:34:47;16.40;98.10
16663;DHT22;8445;51.270;9.434;2023-07-31T01:37:15;16.40;98.10
16663;DHT22;8445;51.270;9.434;2023-07-31T01:39:40;16.40;98.00
16663;DHT22;8445;51.270;9.434;2023-07-31T01:42:06;16.40;98.40
16663;DHT22;8445;51.270;9.434;2023-07-31T01:44:33;16.50;98.30
16663;DHT22;8445;51.270;9.434;2023-07-31T01:46:59;16.50;98.50
16663;DHT22;8445;51.270;9.434;2023-07-31T01:49:26;16.50;98.50
16663;DHT22;8445;51.270;9.434;2023-07-31T01:51:52;16.50;98.40
16663;DHT22;8445;51.270;9.434;2023-07-31T01:54:18;16.40;98.70
16663;DHT22;8445;51.270;9.434;2023-07-31T01:56:44;16.40;98.70
16663;DHT22;8445;51.270;9.434;2023-07-31T01:59:10;16.40;98.80
16663;DHT22;8445;51.270;9.434;2023-07-31T02:01:36;16.40;99.00
16663;DHT22;8445;51.270;9.434;2023-07-31T02:04:02;16.40;98.90
16663;DHT22;8445;51.270;9.434;2023-07-31T02:06:28;16.40;98.80
16663;DHT22;8445;51.270;9.434;2023-07-31T02:08:54;16.40;99.10
16663;DHT22;8445;51.270;9.434;2023-07-31T02:11:20;16.40;99.00
16663;DHT22;8445;51.270;9.434;2023-07-31T02:13:49;16.40;99.40
16663;DHT22;8445;51.270;9.434;2023-07-31T02:16:14;16.40;99.50
16663;DHT22;8445;51.270;9.434;2023-07-31T02:18:40;16.40;99.60
16663;DHT22;8445;51.270;9.434;2023-07-31T02:21:06;16.40;99.60
16663;DHT22;8445;51.270;9.434;2023-07-31T02:23:32;16.40;99.70
16663;DHT22;8445;51.270;9.434;2023-07-31T02:25:58;16.40;99.60
16663;DHT22;8445;51.270;9.434;2023-07-31T02:28:24;16.40;99.90
16663;DHT22;8445;51.270;9.434;2023-07-31T02:30:50;16.40;99.90
16663;DHT22;8445;51.270;9.434;2023-07-31T02:33:17;16.40;99.90
16663;DHT22;8445;51.270;9.434;2023-07-31T02:35:43;16.30;99.90
16663;DHT22;8445;51.270;9.434;2023-07-31T02:38:09;16.30;99.90
16663;DHT22;8445;51.270;9.434;2023-07-31T02:40:35;16.40;99.90
16663;DHT22;8445;51.270;9.434;2023-07-31T02:43:01;16.30;99.90
16663;DHT22;8445;51.270;9.434;2023-07-31T02:45:27;16.30;99.90
16663;DHT22;8445;51.270;9.434;2023-07-31T02:47:53;16.30;99.90
16663;DHT22;8445;51.270;9.434;2023-07-31T02:50:20;16.30;99.90
16663;DHT22;8445;51.270;9.434;2023-07-31T02:52:46;16.20;99.90
16663;DHT22;8445;51.270;9.434;2023-07-31T02:55:12;16.20;99.90
16663;DHT22;8445;51.270;9.434;2023-07-31T02:57:38;16.20;99.90
16663;DHT22;8445;51.270;9.434;2023-07-31T03:00:04;16.20;99.90
16663;DHT22;8445;51.270;9.434;2023-07-31T03:02:32;16.20;99.90
16663;DHT22;8445;51.270;9.434;2023-07-31T03:04:58;16.20;99.90
16663;DHT22;8445;51.270;9.434;2023-07-31T03:07:24;16.30;99.90
16663;DHT22;8445;51.270;9.434;2023-07-31T03:09:50;16.30;99.90
16663;DHT22;8445;51.270;9.434;2023-07-31T03:12:16;16.30;99.90
16663;DHT22;8445;51.270;9.434;2023-07-31T03:14:42;16.30;99.90
16663;DHT22;8445;51.270;9.434;2023-07-31T03:17:08;16.30;99.90
16663;DHT22;8445;51.270;9.434;2023-07-31T03:19:33;16.30;99.90
16663;DHT22;8445;51.270;9.434;2023-07-31T03:21:59;16.30;99.90
16663;DHT22;8445;51.270;9.434;2023-07-31T03:24:26;16.30;99.90
16663;DHT22;8445;51.270;9.434;2023-07-31T03:26:52;16.40;99.90
16663;DHT22;8445;51.270;9.434;2023-07-31T03:29:17;16.40;99.90
16663;DHT22;8445;51.270;9.434;2023-07-31T03:31:43;16.40;99.90
16663;DHT22;8445;51.270;9.434;2023-07-31T03:34:09;16.40;99.90
16663;DHT22;8445;51.270;9.434;2023-07-31T03:36:35;16.40;99.90
16663;DHT22;8445;51.270;9.434;2023-07-31T03:39:01;16.50;99.90
16663;DHT22;8445;51.270;9.434;2023-07-31T03:41:27;16.50;99.90
16663;DHT22;8445;51.270;9.434;2023-07-31T03:43:53;16.50;99.90
16663;DHT22;8445;51.270;9.434;2023-07-31T03:46:22;16.60;99.90
16663;DHT22;8445;51.270;9.434;2023-07-31T03:48:48;16.50;99.90
16663;DHT22;8445;51.270;9.434;2023-07-31T03:51:14;16.60;99.90
16663;DHT22;8445;51.270;9.434;2023-07-31T03:53:40;16.60;99.90
16663;DHT22;8445;51.270;9.434;2023-07-31T03:56:06;16.60;99.90
16663;DHT22;8445;51.270;9.434;2023-07-31T03:58:32;16.60;99.90
16663;DHT22;8445;51.270;9.434;2023-07-31T04:00:58;16.60;99.90
16663;DHT22;8445;51.270;9.434;2023-07-31T04:03:24;16.70;99.90
16663;DHT22;8445;51.270;9.434;2023-07-31T04:05:50;16.70;99.90
16663;DHT22;8445;51.270;9.434;2023-07-31T04:08:16;16.70;99.90
16663;DHT22;8445;51.270;9.434;2023-07-31T04:10:41;16.70;99.90
16663;DHT22;8445;51.270;9.434;2023-07-31T04:13:07;16.70;99.90
16663;DHT22;8445;51.270;9.434;2023-07-31T04:15:33;16.70;99.90
16663;DHT22;8445;51.270;9.434;2023-07-31T04:17:59;16.80;99.90
16663;DHT22;8445;51.270;9.434;2023-07-31T04:20:25;16.80;99.90
16663;DHT22;8445;51.270;9.434;2023-07-31T04:22:51;16.80;99.90
16663;DHT22;8445;51.270;9.434;2023-07-31T04:25:17;16.80;99.90
16663;DHT22;8445;51.270;9.434;2023-07-31T04:27:43;16.90;99.80
16663;DHT22;8445;51.270;9.434;2023-07-31T04:30:09;16.90;99.70
16663;DHT22;8445;51.270;9.434;2023-07-31T04:32:35;16.90;99.70
16663;DHT22;8445;51.270;9.434;2023-07-31T04:35:02;16.90;99.60
16663;DHT22;8445;51.270;9.434;2023-07-31T04:37:28;16.90;99.50
16663;DHT22;8445;51.270;9.434;2023-07-31T04:39:54;16.90;99.40
16663;DHT22;8445;51.270;9.434;2023-07-31T04:42:19;16.90;99.50
16663;DHT22;8445;51.270;9.434;2023-07-31T04:44:45;16.90;99.40
16663;DHT22;8445;51.270;9.434;2023-07-31T04:47:11;17.00;99.40
16663;DHT22;8445;51.270;9.434;2023-07-31T04:49:37;17.00;99.40
16663;DHT22;8445;51.270;9.434;2023-07-31T04:52:03;17.00;99.30
16663;DHT22;8445;51.270;9.434;2023-07-31T04:54:30;17.00;99.20
16663;DHT22;8445;51.270;9.434;2023-07-31T04:56:55;17.00;99.30
16663;DHT22;8445;51.270;9.434;2023-07-31T04:59:21;17.00;99.20
16663;DHT22;8445;51.270;9.434;2023-07-31T05:01:47;17.00;99.20
16663;DHT22;8445;51.270;9.434;2023-07-31T05:04:14;17.00;99.10
16663;DHT22;8445;51.270;9.434;2023-07-31T05:06:41;17.10;99.20
16663;DHT22;8445;51.270;9.434;2023-07-31T05:09:07;17.10;99.20
16663;DHT22;8445;51.270;9.434;2023-07-31T05:11:35;17.10;99.10
16663;DHT22;8445;51.270;9.434;2023-07-31T05:14:01;17.10;99.20
16663;DHT22;8445;51.270;9.434;2023-07-31T05:16:27;17.10;99.20
16663;DHT22;8445;51.270;9.434;2023-07-31T05:18:53;17.20;99.30
16663;DHT22;8445;51.270;9.434;2023-07-31T05:21:18;17.20;99.40
16663;DHT22;8445;51.270;9.434;2023-07-31T05:23:44;17.30;99.40
16663;DHT22;8445;51.270;9.434;2023-07-31T05:26:10;17.40;99.40
16663;DHT22;8445;51.270;9.434;2023-07-31T05:28:36;17.50;99.30
16663;DHT22;8445;51.270;9.434;2023-07-31T05:31:03;17.50;99.30
16663;DHT22;8445;51.270;9.434;2023-07-31T05:33:30;17.50;99.30
16663;DHT22;8445;51.270;9.434;2023-07-31T05:35:59;17.50;99.40
16663;DHT22;8445;51.270;9.434;2023-07-31T05:38:25;17.50;99.60
16663;DHT22;8445;51.270;9.434;2023-07-31T05:40:51;17.50;99.70
16663;DHT22;8445;51.270;9.434;2023-07-31T05:43:17;17.50;99.70
16663;DHT22;8445;51.270;9.434;2023-07-31T05:45:43;17.50;99.70
16663;DHT22;8445;51.270;9.434;2023-07-31T05:48:09;17.60;99.50
16663;DHT22;8445;51.270;9.434;2023-07-31T05:50:35;17.60;99.50
16663;DHT22;8445;51.270;9.434;2023-07-31T05:53:01;17.60;99.50
16663;DHT22;8445;51.270;9.434;2023-07-31T05:55:27;17.50;99.50
16663;DHT22;8445;51.270;9.434;2023-07-31T05:57:53;17.50;99.50
16663;DHT22;8445;51.270;9.434;2023-07-31T06:00:19;17.50;99.50
16663;DHT22;8445;51.270;9.434;2023-07-31T06:02:47;17.50;99.60
16663;DHT22;8445;51.270;9.434;2023-07-31T06:05:13;17.50;99.70
16663;DHT22;8445;51.270;9.434;2023-07-31T06:07:40;17.50;99.60
16663;DHT22;8445;51.270;9.434;2023-07-31T06:10:06;17.50;99.50
16663;DHT22;8445;51.270;9.434;2023-07-31T06:12:33;17.50;99.50
16663;DHT22;8445;51.270;9.434;2023-07-31T06:14:59;17.50;99.60
16663;DHT22;8445;51.270;9.434;2023-07-31T06:17:25;17.40;99.70
16663;DHT22;8445;51.270;9.434;2023-07-31T06:19:56;17.40;99.80
16663;DHT22;8445;51.270;9.434;2023-07-31T06:22:22;17.40;99.90
16663;DHT22;8445;51.270;9.434;2023-07-31T06:24:48;17.40;99.90
16663;DHT22;8445;51.270;9.434;2023-07-31T06:27:14;17.40;99.90
16663;DHT22;8445;51.270;9.434;2023-07-31T06:29:40;17.50;99.90
16663;DHT22;8445;51.270;9.434;2023-07-31T06:32:07;17.50;99.90
16663;DHT22;8445;51.270;9.434;2023-07-31T06:34:33;17.50;99.90
16663;DHT22;8445;51.270;9.434;2023-07-31T06:36:59;17.50;99.90
16663;DHT22;8445;51.270;9.434;2023-07-31T06:39:25;17.40;99.90
16663;DHT22;8445;51.270;9.434;2023-07-31T06:41:50;17.40;99.90
16663;DHT22;8445;51.270;9.434;2023-07-31T06:44:16;17.40;99.90
16663;DHT22;8445;51.270;9.434;2023-07-31T06:46:42;17.30;99.90
16663;DHT22;8445;51.270;9.434;2023-07-31T06:49:08;17.30;99.90
16663;DHT22;8445;51.270;9.434;2023-07-31T06:51:34;17.30;99.90
16663;DHT22;8445;51.270;9.434;2023-07-31T06:54:01;17.20;99.90
16663;DHT22;8445;51.270;9.434;2023-07-31T06:56:28;17.20;99.90
16663;DHT22;8445;51.270;9.434;2023-07-31T06:58:54;17.10;99.90
16663;DHT22;8445;51.270;9.434;2023-07-31T07:01:21;17.10;99.90
16663;DHT22;8445;51.270;9.434;2023-07-31T07:03:46;17.20;99.90
16663;DHT22;8445;51.270;9.434;2023-07-31T07:06:12;17.20;99.90
16663;DHT22;8445;51.270;9.434;2023-07-31T07:08:38;17.20;99.90
16663;DHT22;8445;51.270;9.434;2023-07-31T07:11:04;17.20;99.90
16663;DHT22;8445;51.270;9.434;2023-07-31T07:13:30;17.20;99.90
16663;DHT22;8445;51.270;9.434;2023-07-31T07:15:56;17.40;99.90
16663;DHT22;8445;51.270;9.434;2023-07-31T07:18:22;17.60;99.90
16663;DHT22;8445;51.270;9.434;2023-07-31T07:20:50;18.00;99.90
16663;DHT22;8445;51.270;9.434;2023-07-31T07:23:18;18.30;99.90
16663;DHT22;8445;51.270;9.434;2023-07-31T07:25:45;18.60;99.90
16663;DHT22;8445;51.270;9.434;2023-07-31T07:28:12;18.80;99.90
16663;DHT22;8445;51.270;9.434;2023-07-31T07:30:38;18.80;99.90
16663;DHT22;8445;51.270;9.434;2023-07-31T07:33:05;18.80;99.90
16663;DHT22;8445;51.270;9.434;2023-07-31T07:35:34;18.90;99.90
16663;DHT22;8445;51.270;9.434;2023-07-31T07:38:02;18.90;99.90
16663;DHT22;8445;51.270;9.434;2023-07-31T07:40:28;19.00;99.90
16663;DHT22;8445;51.270;9.434;2023-07-31T07:42:54;19.10;99.90
16663;DHT22;8445;51.270;9.434;2023-07-31T07:45:20;19.10;99.90
16663;DHT22;8445;51.270;9.434;2023-07-31T07:47:46;19.10;99.90
16663;DHT22;8445;51.270;9.434;2023-07-31T07:50:12;19.20;99.90
16663;DHT22;8445;51.270;9.434;2023-07-31T07:52:38;19.40;99.90
16663;DHT22;8445;51.270;9.434;2023-07-31T07:55:04;19.50;99.90
16663;DHT22;8445;51.270;9.434;2023-07-31T07:57:30;19.50;99.90
16663;DHT22;8445;51.270;9.434;2023-07-31T07:59:56;19.60;99.90
16663;DHT22;8445;51.270;9.434;2023-07-31T08:02:22;19.70;99.90
16663;DHT22;8445;51.270;9.434;2023-07-31T08:04:48;20.00;99.90
16663;DHT22;8445;51.270;9.434;2023-07-31T08:07:14;20.30;99.90
16663;DHT22;8445;51.270;9.434;2023-07-31T08:09:40;20.60;99.90
16663;DHT22;8445;51.270;9.434;2023-07-31T08:12:07;20.90;99.90
16663;DHT22;8445;51.270;9.434;2023-07-31T08:14:33;21.30;99.90
16663;DHT22;8445;51.270;9.434;2023-07-31T08:17:00;21.50;99.90
16663;DHT22;8445;51.270;9.434;2023-07-31T08:19:26;21.50;99.90
16663;DHT22;8445;51.270;9.434;2023-07-31T08:21:52;21.50;99.40
16663;DHT22;8445;51.270;9.434;2023-07-31T08:24:18;21.20;98.60
16663;DHT22;8445;51.270;9.434;2023-07-31T08:26:43;20.90;98.40
16663;DHT22;8445;51.270;9.434;2023-07-31T08:29:09;20.60;98.50
16663;DHT22;8445;51.270;9.434;2023-07-31T08:31:35;20.30;98.80
16663;DHT22;8445;51.270;9.434;2023-07-31T08:34:01;20.10;98.90
16663;DHT22;8445;51.270;9.434;2023-07-31T08:36:27;20.00;98.90
16663;DHT22;8445;51.270;9.434;2023-07-31T08:38:53;19.90;99.00
16663;DHT22;8445;51.270;9.434;2023-07-31T08:41:19;19.80;99.30
16663;DHT22;8445;51.270;9.434;2023-07-31T08:43:46;19.60;99.50
16663;DHT22;8445;51.270;9.434;2023-07-31T08:46:14;19.60;99.90
16663;DHT22;8445;51.270;9.434;2023-07-31T08:48:42;19.80;99.90
16663;DHT22;8445;51.270;9.434;2023-07-31T08:51:08;19.80;99.60
16663;DHT22;8445;51.270;9.434;2023-07-31T08:53:35;19.90;99.70
16663;DHT22;8445;51.270;9.434;2023-07-31T08:56:02;19.90;99.30
16663;DHT22;8445;51.270;9.434;2023-07-31T08:58:32;19.80;99.00
16663;DHT22;8445;51.270;9.434;2023-07-31T09:01:03;19.70;99.00
16663;DHT22;8445;51.270;9.434;2023-07-31T09:03:33;19.60;99.40
16663;DHT22;8445;51.270;9.434;2023-07-31T09:06:02;19.50;99.90
16663;DHT22;8445;51.270;9.434;2023-07-31T09:08:31;19.50;99.90
16663;DHT22;8445;51.270;9.434;2023-07-31T09:11:02;19.70;99.90
16663;DHT22;8445;51.270;9.434;2023-07-31T09:13:31;19.80;99.90
16663;DHT22;8445;51.270;9.434;2023-07-31T09:15:58;19.80;99.90
16663;DHT22;8445;51.270;9.434;2023-07-31T09:18:25;19.80;99.90
16663;DHT22;8445;51.270;9.434;2023-07-31T09:21:05;19.90;99.90
16663;DHT22;8445;51.270;9.434;2023-07-31T09:23:43;19.80;99.90
16663;DHT22;8445;51.270;9.434;2023-07-31T09:26:10;19.80;99.90
16663;DHT22;8445;51.270;9.434;2023-07-31T09:28:36;19.70;99.90
16663;DHT22;8445;51.270;9.434;2023-07-31T09:31:02;19.50;99.90
16663;DHT22;8445;51.270;9.434;2023-07-31T09:33:28;19.50;99.90
16663;DHT22;8445;51.270;9.434;2023-07-31T09:35:54;19.30;99.90
16663;DHT22;8445;51.270;9.434;2023-07-31T09:38:20;19.10;99.90
16663;DHT22;8445;51.270;9.434;2023-07-31T09:40:47;19.00;99.90
16663;DHT22;8445;51.270;9.434;2023-07-31T09:43:19;18.90;99.90
16663;DHT22;8445;51.270;9.434;2023-07-31T09:45:46;18.80;99.90
16663;DHT22;8445;51.270;9.434;2023-07-31T09:48:14;18.90;99.90
16663;DHT22;8445;51.270;9.434;2023-07-31T09:50:44;19.20;99.90
16663;DHT22;8445;51.270;9.434;2023-07-31T09:53:12;19.60;99.90
16663;DHT22;8445;51.270;9.434;2023-07-31T09:55:40;20.10;99.90
16663;DHT22;8445;51.270;9.434;2023-07-31T09:58:10;20.40;99.90
16663;DHT22;8445;51.270;9.434;2023-07-31T10:00:37;20.50;99.90
16663;DHT22;8445;51.270;9.434;2023-07-31T10:03:05;20.60;99.90
16663;DHT22;8445;51.270;9.434;2023-07-31T10:05:38;20.90;99.90
16663;DHT22;8445;51.270;9.434;2023-07-31T10:08:09;21.40;99.90
16663;DHT22;8445;51.270;9.434;2023-07-31T10:10:42;21.90;99.90
16663;DHT22;8445;51.270;9.434;2023-07-31T10:13:09;22.30;99.90
16663;DHT22;8445;51.270;9.434;2023-07-31T10:15:38;22.60;99.90
16663;DHT22;8445;51.270;9.434;2023-07-31T10:18:06;22.80;99.90
16663;DHT22;8445;51.270;9.434;2023-07-31T10:20:33;22.90;99.90
16663;DHT22;8445;51.270;9.434;2023-07-31T10:23:00;23.10;99.90
16663;DHT22;8445;51.270;9.434;2023-07-31T10:25:27;23.40;99.90
16663;DHT22;8445;51.270;9.434;2023-07-31T10:27:54;23.80;99.90
16663;DHT22;8445;51.270;9.434;2023-07-31T10:30:27;23.90;98.20
16663;DHT22;8445;51.270;9.434;2023-07-31T10:32:56;23.70;95.80
16663;DHT22;8445;51.270;9.434;2023-07-31T10:35:23;23.30;97.10
16663;DHT22;8445;51.270;9.434;2023-07-31T10:37:52;23.10;97.00
16663;DHT22;8445;51.270;9.434;2023-07-31T10:40:27;23.10;97.80
16663;DHT22;8445;51.270;9.434;2023-07-31T10:42:57;23.60;96.80
16663;DHT22;8445;51.270;9.434;2023-07-31T10:45:46;23.80;96.50
16663;DHT22;8445;51.270;9.434;2023-07-31T10:48:16;23.70;95.20
16663;DHT22;8445;51.270;9.434;2023-07-31T10:50:50;23.60;95.70
16663;DHT22;8445;51.270;9.434;2023-07-31T10:53:25;23.60;95.20
16663;DHT22;8445;51.270;9.434;2023-07-31T10:55:52;23.50;94.60
16663;DHT22;8445;51.270;9.434;2023-07-31T10:58:20;23.20;94.20
16663;DHT22;8445;51.270;9.434;2023-07-31T11:00:46;22.90;94.00
16663;DHT22;8445;51.270;9.434;2023-07-31T11:03:17;22.80;94.90
16663;DHT22;8445;51.270;9.434;2023-07-31T11:08:26;22.90;95.00
16663;DHT22;8445;51.270;9.434;2023-07-31T11:11:08;23.00;94.20
16663;DHT22;8445;51.270;9.434;2023-07-31T11:13:47;23.10;94.50
16663;DHT22;8445;51.270;9.434;2023-07-31T11:16:22;23.60;94.60
16663;DHT22;8445;51.270;9.434;2023-07-31T11:18:51;23.80;93.60
16663;DHT22;8445;51.270;9.434;2023-07-31T11:21:21;23.70;92.10
16663;DHT22;8445;51.270;9.434;2023-07-31T11:23:50;23.40;91.40
16663;DHT22;8445;51.270;9.434;2023-07-31T11:26:19;22.80;91.30
16663;DHT22;8445;51.270;9.434;2023-07-31T11:28:49;22.20;92.00
16663;DHT22;8445;51.270;9.434;2023-07-31T11:31:16;21.80;92.40
16663;DHT22;8445;51.270;9.434;2023-07-31T11:33:44;21.60;92.90
16663;DHT22;8445;51.270;9.434;2023-07-31T11:36:20;21.50;93.20
16663;DHT22;8445;51.270;9.434;2023-07-31T11:38:46;21.40;93.00
16663;DHT22;8445;51.270;9.434;2023-07-31T11:41:16;21.40;93.20
16663;DHT22;8445;51.270;9.434;2023-07-31T11:43:43;21.50;93.20
16663;DHT22;8445;51.270;9.434;2023-07-31T11:46:09;21.50;92.90
16663;DHT22;8445;51.270;9.434;2023-07-31T11:48:37;21.60;92.70
16663;DHT22;8445;51.270;9.434;2023-07-31T11:51:05;21.80;92.30
16663;DHT22;8445;51.270;9.434;2023-07-31T11:53:49;22.00;91.90
16663;DHT22;8445;51.270;9.434;2023-07-31T11:56:21;22.10;88.20
16663;DHT22;8445;51.270;9.434;2023-07-31T11:58:54;22.10;91.10
16663;DHT22;8445;51.270;9.434;2023-07-31T12:01:24;22.10;90.60
16663;DHT22;8445;51.270;9.434;2023-07-31T12:03:53;21.90;90.30
16663;DHT22;8445;51.270;9.434;2023-07-31T12:06:19;21.70;90.40
16663;DHT22;8445;51.270;9.434;2023-07-31T12:08:48;21.60;90.50
16663;DHT22;8445;51.270;9.434;2023-07-31T12:11:14;21.50;90.30
16663;DHT22;8445;51.270;9.434;2023-07-31T12:13:40;21.50;90.30
16663;DHT22;8445;51.270;9.434;2023-07-31T12:16:06;21.40;90.10
16663;DHT22;8445;51.270;9.434;2023-07-31T12:18:37;21.40;90.30
16663;DHT22;8445;51.270;9.434;2023-07-31T12:21:06;21.40;90.40
16663;DHT22;8445;51.270;9.434;2023-07-31T12:23:35;21.50;90.50
16663;DHT22;8445;51.270;9.434;2023-07-31T12:26:15;21.40;90.30
16663;DHT22;8445;51.270;9.434;2023-07-31T12:28:49;21.20;90.50
16663;DHT22;8445;51.270;9.434;2023-07-31T12:31:21;21.20;90.50
16663;DHT22;8445;51.270;9.434;2023-07-31T12:33:49;21.10;90.90
16663;DHT22;8445;51.270;9.434;2023-07-31T12:36:21;21.00;91.20
16663;DHT22;8445;51.270;9.434;2023-07-31T12:38:51;21.00;91.40
16663;DHT22;8445;51.270;9.434;2023-07-31T12:41:18;20.90;92.00
16663;DHT22;8445;51.270;9.434;2023-07-31T12:43:45;20.90;92.70
16663;DHT22;8445;51.270;9.434;2023-07-31T12:46:11;20.90;92.70
16663;DHT22;8445;51.270;9.434;2023-07-31T12:48:38;20.80;92.90
16663;DHT22;8445;51.270;9.434;2023-07-31T12:51:04;20.70;93.10
16663;DHT22;8445;51.270;9.434;2023-07-31T12:53:32;20.70;93.10
16663;DHT22;8445;51.270;9.434;2023-07-31T12:55:58;20.60;93.20
16663;DHT22;8445;51.270;9.434;2023-07-31T12:58:24;20.40;93.50
16663;DHT22;8445;51.270;9.434;2023-07-31T13:00:51;20.40;93.80
16663;DHT22;8445;51.270;9.434;2023-07-31T13:03:17;20.40;93.80
16663;DHT22;8445;51.270;9.434;2023-07-31T13:05:43;20.50;94.00
16663;DHT22;8445;51.270;9.434;2023-07-31T13:08:09;20.70;93.80
16663;DHT22;8445;51.270;9.434;2023-07-31T13:10:35;20.90;93.30
16663;DHT22;8445;51.270;9.434;2023-07-31T13:13:01;20.90;93.10
16663;DHT22;8445;51.270;9.434;2023-07-31T13:15:26;21.10;93.20
16663;DHT22;8445;51.270;9.434;2023-07-31T13:17:52;21.30;93.10
16663;DHT22;8445;51.270;9.434;2023-07-31T13:20:18;21.50;92.60
16663;DHT22;8445;51.270;9.434;2023-07-31T13:22:44;21.60;92.10
16663;DHT22;8445;51.270;9.434;2023-07-31T13:25:10;21.80;92.20
16663;DHT22;8445;51.270;9.434;2023-07-31T13:27:36;22.20;92.10
16663;DHT22;8445;51.270;9.434;2023-07-31T13:30:02;22.60;91.70
16663;DHT22;8445;51.270;9.434;2023-07-31T13:32:29;22.90;91.20
16663;DHT22;8445;51.270;9.434;2023-07-31T13:34:55;23.20;90.40
16663;DHT22;8445;51.270;9.434;2023-07-31T13:37:21;23.30;89.50
16663;DHT22;8445;51.270;9.434;2023-07-31T13:39:47;23.20;87.30
16663;DHT22;8445;51.270;9.434;2023-07-31T13:42:13;23.10;87.70
16663;DHT22;8445;51.270;9.434;2023-07-31T13:44:41;22.80;87.40
16663;DHT22;8445;51.270;9.434;2023-07-31T13:47:08;22.50;87.40
16663;DHT22;8445;51.270;9.434;2023-07-31T13:49:36;22.20;88.50
16663;DHT22;8445;51.270;9.434;2023-07-31T13:52:05;22.20;90.00
16663;DHT22;8445;51.270;9.434;2023-07-31T13:54:31;22.30;89.10
16663;DHT22;8445;51.270;9.434;2023-07-31T13:56:57;22.30;88.80
16663;DHT22;8445;51.270;9.434;2023-07-31T13:59:23;22.40;89.30
16663;DHT22;8445;51.270;9.434;2023-07-31T14:01:50;22.50;88.80
16663;DHT22;8445;51.270;9.434;2023-07-31T14:04:16;22.60;87.30
16663;DHT22;8445;51.270;9.434;2023-07-31T14:06:43;22.60;87.20
16663;DHT22;8445;51.270;9.434;2023-07-31T14:09:09;22.70;87.00
16663;DHT22;8445;51.270;9.434;2023-07-31T14:11:35;23.00;86.70
16663;DHT22;8445;51.270;9.434;2023-07-31T14:14:01;23.30;86.50
16663;DHT22;8445;51.270;9.434;2023-07-31T14:16:28;23.60;84.50
16663;DHT22;8445;51.270;9.434;2023-07-31T14:18:54;23.90;84.40
16663;DHT22;8445;51.270;9.434;2023-07-31T14:21:20;24.20;83.20
16663;DHT22;8445;51.270;9.434;2023-07-31T14:23:46;24.40;82.60
16663;DHT22;8445;51.270;9.434;2023-07-31T14:26:12;24.60;81.80
16663;DHT22;8445;51.270;9.434;2023-07-31T14:28:38;24.60;81.20
16663;DHT22;8445;51.270;9.434;2023-07-31T14:31:04;24.60;81.00
16663;DHT22;8445;51.270;9.434;2023-07-31T14:33:30;24.70;81.00
16663;DHT22;8445;51.270;9.434;2023-07-31T14:35:56;24.70;79.90
16663;DHT22;8445;51.270;9.434;2023-07-31T14:38:22;24.70;79.60
16663;DHT22;8445;51.270;9.434;2023-07-31T14:40:48;24.60;79.20
16663;DHT22;8445;51.270;9.434;2023-07-31T14:43:14;24.40;78.70
16663;DHT22;8445;51.270;9.434;2023-07-31T14:45:40;24.10;78.90
16663;DHT22;8445;51.270;9.434;2023-07-31T14:48:05;23.70;78.80
16663;DHT22;8445;51.270;9.434;2023-07-31T14:50:31;23.50;79.20
16663;DHT22;8445;51.270;9.434;2023-07-31T14:52:58;23.10;79.40
16663;DHT22;8445;51.270;9.434;2023-07-31T14:55:25;22.90;80.20
16663;DHT22;8445;51.270;9.434;2023-07-31T14:57:51;22.70;80.70
16663;DHT22;8445;51.270;9.434;2023-07-31T15:00:17;22.60;81.30
16663;DHT22;8445;51.270;9.434;2023-07-31T15:02:43;22.70;82.00
16663;DHT22;8445;51.270;9.434;2023-07-31T15:05:09;22.70;81.70
16663;DHT22;8445;51.270;9.434;2023-07-31T15:07:35;22.60;81.50
16663;DHT22;8445;51.270;9.434;2023-07-31T15:10:02;22.40;81.20
16663;DHT22;8445;51.270;9.434;2023-07-31T15:12:28;22.20;81.70
16663;DHT22;8445;51.270;9.434;2023-07-31T15:14:54;22.10;82.30
16663;DHT22;8445;51.270;9.434;2023-07-31T15:17:20;22.10;82.80
16663;DHT22;8445;51.270;9.434;2023-07-31T15:19:46;22.20;82.80
16663;DHT22;8445;51.270;9.434;2023-07-31T15:22:12;22.30;82.50
16663;DHT22;8445;51.270;9.434;2023-07-31T15:24:38;22.10;82.70
16663;DHT22;8445;51.270;9.434;2023-07-31T15:27:04;22.00;83.20
16663;DHT22;8445;51.270;9.434;2023-07-31T15:29:30;21.90;83.40
16663;DHT22;8445;51.270;9.434;2023-07-31T15:31:56;21.80;84.00
16663;DHT22;8445;51.270;9.434;2023-07-31T15:34:22;21.70;84.60
16663;DHT22;8445;51.270;9.434;2023-07-31T15:36:48;21.70;84.90
16663;DHT22;8445;51.270;9.434;2023-07-31T15:39:14;21.70;85.30
16663;DHT22;8445;51.270;9.434;2023-07-31T15:41:40;21.70;85.50
16663;DHT22;8445;51.270;9.434;2023-07-31T15:44:07;21.70;85.80
16663;DHT22;8445;51.270;9.434;2023-07-31T15:46:33;21.80;85.90
16663;DHT22;8445;51.270;9.434;2023-07-31T15:49:00;21.70;85.90
16663;DHT22;8445;51.270;9.434;2023-07-31T15:51:26;21.90;85.90
16663;DHT22;8445;51.270;9.434;2023-07-31T15:53:52;22.00;86.00